ADDS METAR Data INFO
IDs: Format: Raw Decoded Include TAF

Data at: 2113 UTC 19 Jul 2018

KFWB 192055Z AUTO 12004KT 10SM CLR 34/23 A2991 RMK AO2 LTG DSNT N AND NW
KFWB 192035Z AUTO 15003KT 10SM VCTS CLR 33/22 A2992 RMK AO2 LTG DSNT N AND NW
KFWB 192015Z AUTO 08004KT 10SM CLR 33/23 A2992 RMK AO2
KFWB 191955Z AUTO 11004KT 10SM CLR 33/23 A2991 RMK AO2
KFWB 191935Z AUTO 11006KT 10SM CLR 33/23 A2991 RMK AO2
KFWB 191915Z AUTO 11006KT 10SM CLR 33/24 A2991 RMK AO2
KFWB 191855Z AUTO 18004KT 10SM FEW037 33/23 A2992 RMK AO2 LTG DSNT N AND NE
KFWB 191835Z AUTO 00000KT 10SM BKN037 32/24 A2992 RMK AO2
KFWB 191815Z AUTO 12004KT 10SM CLR 32/24 A2992 RMK AO2
KFWB 191755Z AUTO 17004KT 9SM CLR 31/24 A2992 RMK AO2
KFWB 191735Z AUTO 16003KT 10SM CLR 31/24 A2992 RMK AO2
KFWB 191715Z AUTO 00000KT 10SM CLR 30/24 A2993 RMK AO2
KFWB 191655Z AUTO 26004KT 10SM CLR 30/24 A2994 RMK AO2
KFWB 191635Z AUTO 04003KT 10SM CLR 29/23 A2994 RMK AO2
KFWB 191615Z AUTO 13005KT 10SM CLR 29/24 A2994 RMK AO2
KFWB 191555Z AUTO 00000KT 9SM CLR 28/23 A2994 RMK AO2
KFWB 191535Z AUTO 11003KT 10SM CLR 27/23 A2994 RMK AO2
KFWB 191515Z AUTO 12004KT 9SM SCT011 27/23 A2993 RMK AO2
KFWB 191455Z AUTO 14005KT 9SM BKN008 25/23 A2994 RMK AO2
KFWB 191435Z AUTO 15003KT 5SM BR OVC008 25/23 A2994 RMK AO2
KFWB 191415Z AUTO 12004KT 7SM OVC006 24/24 A2995 RMK AO2
KFWB 191355Z AUTO 11003KT 5SM BR OVC005 23/23 A2996 RMK AO2
KFWB 191335Z AUTO 12004KT 5SM BR OVC004 23/23 A2996 RMK AO2
KFWB 191315Z AUTO 00000KT 3SM BR OVC003 23/23 A2996 RMK AO2
KFWB 191255Z AUTO 12004KT 2SM BR OVC002 22/22 A2996 RMK AO2
KFWB 191235Z AUTO 13003KT 1SM BR OVC002 22/22 A2997 RMK AO2
KFWB 191215Z AUTO 11004KT 3/4SM BR OVC002 22/22 A2996 RMK AO2
KFWB 191155Z AUTO 12004KT 1 1/2SM BR OVC002 22/22 A2996 RMK AO2
KFWB 191135Z AUTO 12004KT 1 1/2SM BR OVC002 22/22 A2996 RMK AO2
KFWB 191115Z AUTO 12005KT 1 1/2SM BR OVC002 22/22 A2995 RMK AO2
KFWB 191055Z AUTO 12004KT 3SM BR OVC003 22/22 A2995 RMK AO2
KFWB 191035Z AUTO 11004KT 3SM BR OVC003 22/22 A2995 RMK AO2
KFWB 191015Z AUTO 12006KT 4SM BR OVC003 22/22 A2996 RMK AO2
KFWB 190955Z AUTO 12009KT 3SM BR OVC003 22/22 A2995 RMK AO2
KFWB 190935Z AUTO 11006KT 2SM BR OVC002 22/22 A2996 RMK AO2
KFWB 190915Z AUTO 09004KT 1SM BR OVC002 22/22 A2996 RMK AO2
KFWB 190855Z AUTO 08005KT 3/4SM BR OVC002 22/22 A2996 RMK AO2
KFWB 190835Z AUTO 08003KT 1SM BR OVC002 22/22 A2995 RMK AO2
KFWB 190815Z AUTO 10004KT 3/4SM BR OVC002 22/22 A2995 RMK AO2
KFWB 190755Z AUTO 09004KT 1SM BR OVC002 22/22 A2995 RMK AO2
KFWB 190735Z AUTO 11003KT 2 1/2SM BR OVC003 22/22 A2996 RMK AO2
KFWB 190715Z AUTO 07006KT 5SM BR OVC003 22/22 A2997 RMK AO2
KFWB 190655Z AUTO 08005KT 7SM SCT004 22/22 A2997 RMK AO2
KFWB 190635Z AUTO 11004KT 7SM CLR 22/22 A2997 RMK AO2
KFWB 190615Z AUTO 00000KT 9SM CLR 22/22 A2997 RMK AO2
KFWB 190555Z AUTO 11005KT 10SM CLR 23/23 A2998 RMK AO2
KFWB 190535Z AUTO 11005KT 10SM CLR 23/23 A2998 RMK AO2
KFWB 190515Z AUTO 08005KT 10SM SCT029 SCT033 23/23 A2998 RMK AO2
KFWB 190455Z AUTO 07004KT 10SM OVC031 23/23 A2999 RMK AO2
KFWB 190435Z AUTO 00000KT 10SM SCT031 23/23 A2998 RMK AO2
KFWB 190415Z AUTO 12005KT 10SM CLR 24/23 A2998 RMK AO2
KFWB 190355Z AUTO 12007KT 10SM FEW041 24/24 A2997 RMK AO2
KFWB 190335Z AUTO 11007KT 10SM FEW026 BKN041 BKN050 24/24 A2998 RMK AO2
KFWB 190315Z AUTO 12007KT 070V130 10SM FEW026 SCT041 SCT050 24/23 A2998 RMK AO2
KFWB 190255Z AUTO 12007KT 10SM FEW041 FEW050 25/23 A2997 RMK AO2
KFWB 190235Z AUTO 12007KT 10SM FEW050 25/23 A2996 RMK AO2
KFWB 190215Z AUTO 12006KT 10SM FEW050 25/23 A2996 RMK AO2
KFWB 190155Z AUTO 12006KT 10SM FEW075 25/23 A2996 RMK AO2
KFWB 190135Z AUTO 11004KT 10SM FEW075 25/24 A2995 RMK AO2
KFWB 190115Z AUTO 11004KT 10SM CLR 26/23 A2995 RMK AO2 LTG DSNT NE
KFWB 190055Z AUTO 11004KT 10SM CLR 27/23 A2994 RMK AO2
KFWB 190035Z AUTO 11004KT 10SM CLR 27/23 A2994 RMK AO2 LTG DSNT NE
KFWB 190015Z AUTO 11005KT 10SM CLR 27/23 A2994 RMK AO2
KFWB 182355Z AUTO 13003KT 10SM CLR 28/24 A2994 RMK AO2
KFWB 182335Z AUTO 12003KT 10SM CLR 28/23 A2995 RMK AO2
KFWB 182315Z AUTO 00000KT 10SM FEW110 28/23 A2996 RMK AO2
KFWB 182255Z AUTO 14003KT 10SM FEW110 28/23 A2997 RMK AO2
KFWB 182235Z AUTO 14005KT 10SM -RA FEW100 28/23 A2997 RMK AO2
KFWB 182215Z AUTO 12004KT 10SM FEW100 28/23 A2996 RMK AO2
KFWB 182155Z AUTO 11003KT 10SM CLR 29/23 A2996 RMK AO2
KFWB 182135Z AUTO 15005KT 10SM CLR 28/23 A2996 RMK AO2
KFWB 182115Z AUTO 13004KT 10SM CLR 29/22 A2998 RMK AO2 LTG DSNT E
KFWB 182055Z AUTO 13003KT 10SM CLR 28/23 A2998 RMK AO2
KFWB 182035Z AUTO 14004KT 10SM FEW085 28/23 A2998 RMK AO2
KFWB 182015Z AUTO 00000KT 10SM SCT085 28/23 A2999 RMK AO2
KFWB 181955Z AUTO 11004KT 10SM CLR 27/23 A3000 RMK AO2
KFWB 181935Z AUTO 11006KT 10SM FEW015 SCT060 BKN100 26/23 A3000 RMK AO2
KFWB 181915Z AUTO 12008KT 10SM FEW015 BKN060 25/23 A3001 RMK AO2
KFWB 181855Z AUTO 12006KT 10SM FEW015 BKN060 26/23 A3002 RMK AO2
KFWB 181835Z AUTO 12005KT 10SM FEW015 OVC060 26/24 A3003 RMK AO2
KFWB 181815Z AUTO 12005KT 10SM FEW013 BKN060 25/24 A3003 RMK AO2
KFWB 181755Z AUTO 13007KT 10SM FEW013 SCT060 25/23 A3002 RMK AO2
KFWB 181735Z AUTO 10004KT 10SM SCT013 BKN060 25/24 A3002 RMK AO2
KFWB 181715Z AUTO 11003KT 10SM FEW013 BKN060 25/24 A3002 RMK AO2
KFWB 181655Z AUTO 13005KT 10SM FEW013 BKN060 25/23 A3003 RMK AO2
KFWB 181635Z AUTO 13006KT 10SM FEW060 25/23 A3003 RMK AO2
KFWB 181615Z AUTO 13005KT 10SM CLR 25/24 A3003 RMK AO2
KFWB 181555Z AUTO 12005KT 10SM CLR 24/24 A3003 RMK AO2
KFWB 181535Z AUTO 14005KT 10SM CLR 24/24 A3003 RMK AO2
KFWB 181515Z AUTO 12005KT 10SM CLR 24/24 A3003 RMK AO2
KFWB 181455Z AUTO 12005KT 10SM CLR 23/23 A3003 RMK AO2
KFWB 181435Z AUTO 12004KT 10SM CLR 23/23 A3004 RMK AO2
KFWB 181415Z AUTO 12005KT 4SM -RA CLR 23/23 A3003 RMK AO2
KFWB 181355Z AUTO 12005KT 10SM CLR 24/23 A3005 RMK AO2
KFWB 181335Z AUTO 12005KT 10SM FEW110 24/23 A3005 RMK AO2
KFWB 181315Z AUTO 12005KT 10SM FEW110 23/23 A3005 RMK AO2 LTG DSNT N AND S
KFWB 181255Z AUTO 12006KT 10SM SCT100 BKN120 23/23 A3005 RMK AO2
KFWB 181235Z AUTO 12009KT 10SM FEW060 OVC100 23/23 A3005 RMK AO2 LTG DSNT N AND S
KFWB 181215Z AUTO 12007KT 9SM BKN060 BKN065 OVC100 23/23 A3005 RMK AO2 LTG DSNT S
KFWB 181155Z AUTO 12003KT 8SM VCTS SCT060 BKN080 23/23 A3005 RMK AO2 LTG DSNT S
KFWB 181135Z AUTO 11007KT 10SM SCT070 BKN090 23/23 A3004 RMK AO2 LTG DSNT S
KFWB 181115Z AUTO 11007KT 10SM FEW070 BKN080 BKN090 23/23 A3004 RMK AO2
KFWB 181055Z AUTO 12005KT 10SM BKN090 23/23 A3003 RMK AO2
KFWB 181035Z AUTO 11008KT 9SM OVC090 23/23 A3003 RMK AO2
KFWB 181015Z AUTO 12006KT 8SM BKN090 OVC110 23/23 A3003 RMK AO2
KFWB 180955Z AUTO 12007KT 7SM SCT047 OVC090 23/23 A3003 RMK AO2
KFWB 180935Z AUTO 11007KT 8SM FEW003 BKN047 OVC090 23/23 A3003 RMK AO2
KFWB 180915Z AUTO 12006KT 6SM BR BKN002 BKN049 OVC090 23/23 A3003 RMK AO2